Fukuoka Airport

Airport
ICAO code: 
RJFF
IATA Code: 
FUK
Summary
ICAO Region: 
APAC
Territory: 
Location: 
Hakata, Fukuoka Prefecture
Serving: 
Fukuoka
Elevation: 
30 ft
Coordinates: 
Aerial View: 
33° 35' 10.109" N, 130° 27' 4.329" E
Metar
Observation
RJFF 291400Z AUTO VRB02KT 9999 NCD 09/05 Q1024 NOSIG
Station
Fukuoka Airport
Date/Time
2021-11-29 14:00:00
Wind speed
02 kts
Lowest cloud amount
no clouds detected
Temperature
9°C
Dew point
5°C
Humidity
76%
QNH
1024 hPa
Weather condition
n/a

Fukuoka Airport, formerly known as Itazuke Air Base, is an international and domestic airport located 1.6 nm east of Hakata, Fukuoka, Japan.

Climatology

Humid Sub-tropical climate (Köppen climate classification Cfa)

Runways

Designator Length Width Surface Rops
16/34 2800 60 ASP Yes/Yes
Airport map: 
Aerial View: 

Accidents and Serious Incidents at or in the vicinity of RJFF

SKYbrary Partners:

Safety knowledge contributed by: